Time;durP1;ratioP1;P1;durP2;ratioP2;P2;SDS_P1;SDS_P2;PMS_P1;PMS_P2;Temp;Humidity;BMP_temperature;BMP_pressure;BME280_temperature;BME280_humidity;BME280_pressure;Samples;Min_cycle;Max_cycle;Signal;HPM_P1;HPM_P2
2023/04/22 00:02:03;;;;;;;11.30;8.47;;;11.80;99.90;;;;;;4790917;30;20097;-76
2023/04/22 00:04:29;;;;;;;11.00;7.37;;;11.70;99.90;;;;;;4774279;30;20503;-77
2023/04/22 00:06:55;;;;;;;11.60;8.23;;;11.70;99.90;;;;;;4790107;30;20051;-77
2023/04/22 00:09:21;;;;;;;8.47;6.63;;;11.70;99.90;;;;;;4775067;30;20139;-77
2023/04/22 00:11:47;;;;;;;9.50;7.30;;;11.60;99.90;;;;;;4774895;30;20449;-77
2023/04/22 00:14:13;;;;;;;8.93;6.87;;;11.50;99.90;;;;;;4789942;30;20813;-77
2023/04/22 00:16:38;;;;;;;10.37;7.67;;;11.50;99.90;;;;;;4790230;30;20058;-77
2023/04/22 00:19:04;;;;;;;11.97;7.53;;;11.40;99.90;;;;;;4789993;30;20059;-77
2023/04/22 00:21:31;;;;;;;9.10;7.40;;;11.30;99.90;;;;;;4789917;30;20070;-77
2023/04/22 00:23:57;;;;;;;9.70;7.73;;;11.30;99.90;;;;;;4789865;30;20323;-77
2023/04/22 00:26:23;;;;;;;10.90;8.07;;;11.30;99.90;;;;;;4773806;30;20389;-77
2023/04/22 00:28:49;;;;;;;10.67;8.07;;;11.30;99.90;;;;;;4788684;29;20347;-77
2023/04/22 00:31:15;;;;;;;9.63;7.70;;;11.30;99.90;;;;;;4790462;30;20061;-77
2023/04/22 00:33:41;;;;;;;11.07;8.70;;;11.30;99.90;;;;;;4789919;30;20773;-77
2023/04/22 00:36:07;;;;;;;11.60;8.57;;;11.30;99.90;;;;;;4790273;30;20086;-77
2023/04/22 00:38:32;;;;;;;10.40;8.00;;;11.20;99.90;;;;;;4789542;30;20511;-77
2023/04/22 00:40:58;;;;;;;13.43;8.10;;;11.20;99.90;;;;;;4789322;30;20051;-76
2023/04/22 00:43:24;;;;;;;10.40;8.27;;;11.20;99.90;;;;;;4789104;30;20111;-77
2023/04/22 00:45:50;;;;;;;10.10;8.67;;;11.20;99.90;;;;;;4774288;30;20132;-77
2023/04/22 00:48:16;;;;;;;13.27;9.00;;;11.10;99.90;;;;;;4773103;30;20043;-76
2023/04/22 00:50:41;;;;;;;12.47;8.83;;;11.10;99.90;;;;;;4789034;30;20062;-77
2023/04/22 00:53:07;;;;;;;10.13;8.33;;;11.10;99.90;;;;;;4789005;30;20091;-77
2023/04/22 00:55:33;;;;;;;10.57;8.07;;;11.00;99.90;;;;;;4773388;30;20059;-77
2023/04/22 00:58:01;;;;;;;11.80;8.20;;;11.00;99.90;;;;;;4773263;30;20108;-77
2023/04/22 01:00:28;;;;;;;10.10;8.40;;;11.00;99.90;;;;;;4789445;30;20318;-77
2023/04/22 01:02:54;;;;;;;13.03;9.37;;;10.90;99.90;;;;;;4773310;30;20299;-77
2023/04/22 01:05:20;;;;;;;12.83;8.00;;;10.90;99.90;;;;;;4789069;30;20371;-77
2023/04/22 01:07:46;;;;;;;10.47;8.50;;;10.80;99.90;;;;;;4789591;30;20688;-77
2023/04/22 01:10:12;;;;;;;11.10;8.07;;;10.80;99.90;;;;;;4788979;30;20292;-78
2023/04/22 01:12:37;;;;;;;10.73;7.70;;;10.70;99.90;;;;;;4773206;30;20074;-77
2023/04/22 01:15:04;;;;;;;10.37;9.17;;;10.60;99.90;;;;;;4789257;30;20104;-77
2023/04/22 01:17:33;;;;;;;10.93;8.57;;;10.50;99.90;;;;;;4788931;30;20051;-77
2023/04/22 01:19:59;;;;;;;10.60;8.10;;;10.60;99.90;;;;;;4772718;30;20770;-78
2023/04/22 01:22:26;;;;;;;10.60;7.33;;;10.50;99.90;;;;;;4788816;30;20297;-77
2023/04/22 01:24:53;;;;;;;10.20;7.60;;;10.40;99.90;;;;;;4788949;30;20481;-78
2023/04/22 01:27:20;;;;;;;9.70;7.60;;;10.40;99.90;;;;;;4772912;30;20357;-77
2023/04/22 01:29:47;;;;;;;10.23;7.40;;;10.40;99.90;;;;;;4788731;30;20362;-78
2023/04/22 01:32:12;;;;;;;8.47;7.07;;;10.40;99.90;;;;;;4788690;30;20296;-78
2023/04/22 01:34:38;;;;;;;8.97;7.23;;;10.30;99.90;;;;;;4788247;30;20316;-78
2023/04/22 01:37:06;;;;;;;10.77;8.20;;;10.30;99.90;;;;;;4772631;30;20081;-78
2023/04/22 01:39:32;;;;;;;9.37;7.10;;;10.30;99.90;;;;;;4788249;30;20055;-78
2023/04/22 01:41:58;;;;;;;11.43;7.23;;;10.30;99.90;;;;;;4788128;30;20370;-78
2023/04/22 01:44:25;;;;;;;8.60;6.90;;;10.20;99.90;;;;;;4788498;30;20796;-78
2023/04/22 01:46:51;;;;;;;9.13;7.33;;;10.20;99.90;;;;;;4788428;30;20304;-78
2023/04/22 01:49:16;;;;;;;9.40;7.37;;;10.20;99.90;;;;;;4772801;30;20301;-78
2023/04/22 01:51:42;;;;;;;10.30;7.83;;;10.20;99.90;;;;;;4772439;30;20485;-78
2023/04/22 01:54:09;;;;;;;10.27;7.77;;;10.20;99.90;;;;;;4788357;30;20051;-78
2023/04/22 01:56:35;;;;;;;11.47;8.50;;;10.20;99.90;;;;;;4757823;30;20047;-78
2023/04/22 01:59:01;;;;;;;8.37;6.47;;;10.20;99.90;;;;;;4773284;30;20333;-78
2023/04/22 02:01:27;;;;;;;9.87;6.57;;;10.10;99.90;;;;;;4788404;30;20794;-78
2023/04/22 02:03:52;;;;;;;8.57;6.43;;;10.10;99.90;;;;;;4788833;30;20051;-78
2023/04/22 02:06:18;;;;;;;9.70;6.53;;;10.10;99.90;;;;;;4788385;30;20103;-78
2023/04/22 02:08:44;;;;;;;9.10;7.03;;;10.10;99.90;;;;;;4788286;30;20047;-78
2023/04/22 02:11:09;;;;;;;8.83;7.10;;;10.10;99.90;;;;;;4788229;30;20059;-78
2023/04/22 02:13:39;;;;;;;8.83;7.07;;;10.10;99.90;;;;;;4772382;30;20109;-78
2023/04/22 02:16:06;;;;;;;8.37;6.63;;;10.00;99.90;;;;;;4788939;30;20409;-78
2023/04/22 02:18:32;;;;;;;9.90;6.87;;;10.00;99.90;;;;;;4773113;30;20301;-78
2023/04/22 02:20:58;;;;;;;8.90;6.97;;;10.00;99.90;;;;;;4788180;30;20304;-78
2023/04/22 02:23:24;;;;;;;9.03;7.17;;;10.00;99.90;;;;;;4788182;30;20078;-78
2023/04/22 02:25:51;;;;;;;9.10;7.63;;;10.00;99.90;;;;;;4787417;30;20126;-79
2023/04/22 02:28:18;;;;;;;9.07;7.10;;;10.00;99.90;;;;;;4772226;30;20881;-78
2023/04/22 02:30:46;;;;;;;9.13;6.53;;;10.00;99.90;;;;;;4772266;30;20332;-78
2023/04/22 02:33:12;;;;;;;9.83;7.00;;;10.00;99.90;;;;;;4788520;30;20289;-78
2023/04/22 02:35:38;;;;;;;9.57;7.67;;;9.90;99.90;;;;;;4788450;30;20440;-78
2023/04/22 02:38:04;;;;;;;8.77;7.20;;;9.90;99.90;;;;;;4788012;30;20055;-79
2023/04/22 02:40:30;;;;;;;10.57;7.10;;;9.90;99.90;;;;;;4772504;30;20132;-79
2023/04/22 02:42:55;;;;;;;8.90;7.40;;;9.90;99.90;;;;;;4788342;30;20481;-78
2023/04/22 02:45:21;;;;;;;10.27;7.33;;;9.90;99.90;;;;;;4757156;30;20141;-78
2023/04/22 02:47:47;;;;;;;10.13;7.97;;;9.90;99.90;;;;;;4788420;30;20051;-78
2023/04/22 02:50:13;;;;;;;11.37;7.40;;;9.80;99.90;;;;;;4772100;30;20472;-79
2023/04/22 02:52:38;;;;;;;10.00;7.73;;;9.90;99.90;;;;;;4773557;30;20047;-79
2023/04/22 02:55:05;;;;;;;8.93;7.37;;;9.80;99.90;;;;;;4775016;30;20051;-79
2023/04/22 02:57:31;;;;;;;10.57;7.50;;;9.80;99.90;;;;;;4775481;30;20112;-78
2023/04/22 02:59:56;;;;;;;10.37;8.63;;;9.80;99.90;;;;;;4760581;30;20289;-79
2023/04/22 03:02:22;;;;;;;9.30;7.50;;;9.80;99.90;;;;;;4775250;30;20481;-78
2023/04/22 03:04:48;;;;;;;9.30;7.80;;;9.80;99.90;;;;;;4791908;30;20043;-78
2023/04/22 03:07:14;;;;;;;10.07;7.83;;;9.70;99.90;;;;;;4775146;30;20051;-78
2023/04/22 03:09:39;;;;;;;11.80;8.87;;;9.70;99.90;;;;;;4775521;30;20051;-78
2023/04/22 03:12:05;;;;;;;8.83;7.30;;;9.70;99.90;;;;;;4775049;30;20063;-79
2023/04/22 03:14:31;;;;;;;9.70;7.93;;;9.60;99.90;;;;;;4790987;30;20481;-79
2023/04/22 03:16:56;;;;;;;12.40;8.57;;;9.70;99.90;;;;;;4774950;30;20408;-78
2023/04/22 03:19:22;;;;;;;10.97;8.17;;;9.70;99.90;;;;;;4775068;30;20056;-79
2023/04/22 03:21:48;;;;;;;9.60;8.00;;;9.60;99.90;;;;;;4774916;30;20481;-78
2023/04/22 03:24:13;;;;;;;11.73;8.93;;;9.60;99.90;;;;;;4790605;30;20054;-79
2023/04/22 03:26:39;;;;;;;10.37;8.40;;;9.60;99.90;;;;;;4774683;30;20112;-78
2023/04/22 03:29:06;;;;;;;11.50;9.73;;;9.60;99.90;;;;;;4790554;30;20156;-78
2023/04/22 03:31:32;;;;;;;12.40;9.37;;;9.60;99.90;;;;;;4775088;30;20443;-78
2023/04/22 03:33:57;;;;;;;10.43;8.60;;;9.50;99.90;;;;;;4790843;30;20293;-78
2023/04/22 03:36:23;;;;;;;11.63;8.60;;;9.50;99.90;;;;;;4790694;30;20048;-78
2023/04/22 03:38:49;;;;;;;10.67;9.07;;;9.50;99.90;;;;;;4774813;30;20109;-78
2023/04/22 03:41:15;;;;;;;11.87;9.73;;;9.50;99.90;;;;;;4790396;30;20520;-78
2023/04/22 03:43:41;;;;;;;10.53;9.23;;;9.50;99.90;;;;;;4790868;30;20301;-79
2023/04/22 03:46:07;;;;;;;11.57;10.27;;;9.50;99.90;;;;;;4790545;30;20044;-79
2023/04/22 03:48:34;;;;;;;11.17;9.43;;;9.50;99.90;;;;;;4790723;30;20492;-78
2023/04/22 03:51:01;;;;;;;11.60;10.23;;;9.40;99.90;;;;;;4774317;30;20070;-78
2023/04/22 03:53:27;;;;;;;12.47;10.53;;;9.40;99.90;;;;;;4760261;30;20357;-78
2023/04/22 03:55:53;;;;;;;11.60;9.80;;;9.40;99.90;;;;;;4774220;30;20351;-78
2023/04/22 03:58:18;;;;;;;13.87;10.00;;;9.40;99.90;;;;;;4790272;30;20328;-78
2023/04/22 04:00:44;;;;;;;12.53;10.10;;;9.40;99.90;;;;;;4790758;30;20055;-78
2023/04/22 04:03:10;;;;;;;12.23;10.33;;;9.30;99.90;;;;;;4759506;30;20070;-79
2023/04/22 04:05:36;;;;;;;12.80;10.73;;;9.30;99.90;;;;;;4773934;30;20405;-78
2023/04/22 04:08:02;;;;;;;11.20;9.90;;;9.30;99.90;;;;;;4790181;30;20142;-78
2023/04/22 04:10:28;;;;;;;14.93;10.60;;;9.30;99.90;;;;;;4790103;30;20297;-78
2023/04/22 04:12:53;;;;;;;12.27;10.53;;;9.20;99.90;;;;;;4774228;30;20304;-78
2023/04/22 04:15:20;;;;;;;11.43;9.97;;;9.20;99.90;;;;;;4774668;30;20473;-78
2023/04/22 04:17:47;;;;;;;12.30;9.97;;;9.20;99.90;;;;;;4790237;30;20130;-78
2023/04/22 04:20:14;;;;;;;11.73;9.93;;;9.10;99.90;;;;;;4774320;30;20703;-79
2023/04/22 04:22:40;;;;;;;11.07;9.50;;;9.10;99.90;;;;;;4790428;30;20328;-79
2023/04/22 04:25:07;;;;;;;11.03;9.47;;;9.00;99.90;;;;;;4789865;30;20373;-78
2023/04/22 04:27:33;;;;;;;10.37;8.93;;;9.00;99.90;;;;;;4774138;30;20308;-78
2023/04/22 04:29:59;;;;;;;12.87;10.83;;;8.90;99.90;;;;;;4790264;30;20304;-78
2023/04/22 04:32:25;;;;;;;12.17;10.20;;;8.90;99.90;;;;;;4788598;30;20296;-78
2023/04/22 04:34:51;;;;;;;11.93;10.40;;;8.90;99.90;;;;;;4773572;30;20055;-78
2023/04/22 04:37:17;;;;;;;12.30;11.00;;;8.90;99.90;;;;;;4773337;30;20434;-78
2023/04/22 04:39:43;;;;;;;13.03;10.53;;;8.90;99.90;;;;;;4788062;30;20493;-78
2023/04/22 04:42:09;;;;;;;12.27;10.80;;;8.90;99.90;;;;;;4758895;30;20297;-78
2023/04/22 04:44:35;;;;;;;14.07;12.37;;;9.00;99.90;;;;;;4773485;30;20443;-78
2023/04/22 04:47:02;;;;;;;14.70;12.27;;;8.90;99.90;;;;;;4773806;30;20058;-78
2023/04/22 04:49:31;;;;;;;12.50;11.20;;;9.00;99.90;;;;;;4774390;30;20380;-78
2023/04/22 04:51:57;;;;;;;13.87;12.10;;;9.10;99.90;;;;;;4789323;30;20357;-78
2023/04/22 04:54:23;;;;;;;12.73;11.37;;;9.10;99.90;;;;;;4789233;30;20308;-79
2023/04/22 04:56:48;;;;;;;13.73;11.13;;;9.10;99.90;;;;;;4773151;30;20315;-78
2023/04/22 04:59:14;;;;;;;12.37;11.07;;;9.10;99.90;;;;;;4789722;30;20051;-78
2023/04/22 05:01:40;;;;;;;13.73;11.27;;;9.10;99.90;;;;;;4773400;30;20043;-78
2023/04/22 05:04:06;;;;;;;15.87;12.73;;;9.10;99.90;;;;;;4789633;30;20051;-79
2023/04/22 05:06:32;;;;;;;13.03;11.63;;;9.20;99.90;;;;;;4789356;30;20062;-78
2023/04/22 05:08:58;;;;;;;15.67;12.10;;;9.10;99.90;;;;;;4773245;30;20098;-78
2023/04/22 05:11:24;;;;;;;14.43;11.73;;;9.20;99.90;;;;;;4773025;30;20382;-78
2023/04/22 05:13:50;;;;;;;13.97;12.03;;;9.30;99.90;;;;;;4789030;29;20055;-78
2023/04/22 05:16:15;;;;;;;13.90;12.00;;;9.30;99.90;;;;;;4788351;30;20096;-78
2023/04/22 05:18:41;;;;;;;13.67;11.27;;;9.30;99.90;;;;;;4788938;30;20058;-78
2023/04/22 05:21:07;;;;;;;14.63;12.30;;;9.30;99.90;;;;;;4789116;30;20055;-80
2023/04/22 05:23:33;;;;;;;14.30;12.20;;;9.30;99.90;;;;;;4772978;30;20566;-78
2023/04/22 05:25:58;;;;;;;13.93;12.00;;;9.40;99.90;;;;;;4788549;30;20095;-78
2023/04/22 05:28:24;;;;;;;15.63;13.23;;;9.40;99.90;;;;;;4757492;30;20055;-78
2023/04/22 05:30:50;;;;;;;14.70;12.60;;;9.40;99.90;;;;;;4773633;30;20051;-78
2023/04/22 05:33:15;;;;;;;14.57;12.37;;;9.40;99.90;;;;;;4788718;30;20488;-79
2023/04/22 05:35:41;;;;;;;17.17;12.50;;;9.50;99.90;;;;;;4772918;30;20055;-78
2023/04/22 05:38:07;;;;;;;14.37;11.30;;;9.50;99.90;;;;;;4788647;30;20086;-78
2023/04/22 05:40:32;;;;;;;14.20;11.80;;;9.60;99.90;;;;;;4789146;30;20113;-78
2023/04/22 05:42:58;;;;;;;14.03;11.47;;;9.60;99.90;;;;;;4771930;30;20055;-78
2023/04/22 05:45:24;;;;;;;13.17;11.53;;;9.60;99.90;;;;;;4788236;30;20055;-79
2023/04/22 05:47:50;;;;;;;15.40;12.80;;;9.70;99.90;;;;;;4788491;30;20066;-78
2023/04/22 05:50:15;;;;;;;15.70;12.23;;;9.80;99.90;;;;;;4787859;30;20047;-79
2023/04/22 05:52:41;;;;;;;13.70;12.00;;;9.80;99.90;;;;;;4787263;30;20059;-79
2023/04/22 05:55:07;;;;;;;14.80;11.97;;;9.80;99.90;;;;;;4788342;30;20051;-78
2023/04/22 05:57:33;;;;;;;14.50;11.67;;;9.80;99.90;;;;;;4789128;30;20147;-78
2023/04/22 05:59:59;;;;;;;11.77;10.57;;;9.90;99.90;;;;;;4788836;30;20404;-78
2023/04/22 06:02:25;;;;;;;15.03;13.43;;;10.10;99.90;;;;;;4789019;30;20051;-79
2023/04/22 06:04:51;;;;;;;28.37;14.53;;;10.90;99.90;;;;;;4743754;30;20632;-79
2023/04/22 06:07:17;;;;;;;16.67;11.10;;;12.20;99.90;;;;;;4757534;30;20131;-79
2023/04/22 06:09:42;;;;;;;13.97;10.20;;;13.30;99.90;;;;;;4788257;30;20048;-79
2023/04/22 06:12:09;;;;;;;13.80;9.20;;;13.60;99.90;;;;;;4788251;30;20086;-78
2023/04/22 06:14:35;;;;;;;11.27;9.60;;;14.10;99.90;;;;;;4772277;30;20331;-79
2023/04/22 06:17:00;;;;;;;11.87;9.50;;;14.80;99.90;;;;;;4788611;30;20300;-79
2023/04/22 06:19:26;;;;;;;11.30;8.50;;;15.20;99.90;;;;;;4788214;30;20059;-79
2023/04/22 06:21:52;;;;;;;10.53;8.13;;;15.10;99.90;;;;;;4772146;30;20126;-78
2023/04/22 06:24:18;;;;;;;10.47;8.80;;;14.80;99.90;;;;;;4788397;30;20497;-79
2023/04/22 06:26:44;;;;;;;10.40;8.83;;;14.30;99.90;;;;;;4790099;29;20074;-79
2023/04/22 06:29:09;;;;;;;9.10;8.07;;;14.00;99.90;;;;;;4791607;30;20051;-79
2023/04/22 06:31:35;;;;;;;11.07;8.90;;;13.60;99.90;;;;;;4791724;30;20070;-78
2023/04/22 06:34:01;;;;;;;11.27;8.07;;;13.20;99.90;;;;;;4760895;30;20475;-78
2023/04/22 06:36:27;;;;;;;9.67;8.00;;;13.00;99.90;;;;;;4775803;30;20129;-79
2023/04/22 06:38:53;;;;;;;10.93;9.13;;;12.80;99.90;;;;;;4792367;30;20051;-78
2023/04/22 06:41:20;;;;;;;11.37;8.83;;;12.70;99.90;;;;;;4775444;30;20078;-79
2023/04/22 06:43:48;;;;;;;9.67;8.67;;;12.70;99.90;;;;;;4775665;30;20316;-79
2023/04/22 06:46:15;;;;;;;11.63;8.73;;;12.70;99.90;;;;;;4775736;30;20320;-78
2023/04/22 06:48:40;;;;;;;11.93;10.23;;;12.70;99.90;;;;;;4792221;30;20289;-79
2023/04/22 06:51:06;;;;;;;11.03;9.67;;;12.80;99.90;;;;;;4791860;30;20300;-79
2023/04/22 06:53:32;;;;;;;9.63;8.60;;;12.90;99.90;;;;;;4775314;30;20055;-79
2023/04/22 06:55:57;;;;;;;10.50;9.40;;;13.00;99.90;;;;;;4790920;30;20051;-79
2023/04/22 06:58:23;;;;;;;10.40;9.23;;;13.00;99.90;;;;;;4790139;30;20062;-79
2023/04/22 07:00:49;;;;;;;10.40;9.03;;;13.00;99.90;;;;;;4775265;30;20110;-79
2023/04/22 07:03:15;;;;;;;11.90;9.23;;;13.00;99.90;;;;;;4775669;30;20146;-79
2023/04/22 07:05:40;;;;;;;12.30;10.30;;;13.00;99.90;;;;;;4775569;30;20056;-79
2023/04/22 07:08:06;;;;;;;10.70;9.47;;;12.90;99.90;;;;;;4775380;30;20063;-79
2023/04/22 07:10:32;;;;;;;11.37;10.17;;;12.70;99.90;;;;;;4760675;30;20570;-79
2023/04/22 07:12:58;;;;;;;11.73;10.43;;;12.80;99.90;;;;;;4791028;30;20051;-78
2023/04/22 07:15:24;;;;;;;11.67;10.43;;;12.80;99.90;;;;;;4774893;30;20855;-79
2023/04/22 07:17:49;;;;;;;11.97;10.67;;;12.70;99.90;;;;;;4775061;30;20077;-79
2023/04/22 07:20:15;;;;;;;12.13;10.63;;;12.70;99.90;;;;;;4790901;30;20092;-78
2023/04/22 07:22:41;;;;;;;12.30;10.83;;;12.70;99.90;;;;;;4790837;30;20112;-78
2023/04/22 07:25:07;;;;;;;12.13;10.40;;;12.70;99.90;;;;;;4790892;30;20051;-79
2023/04/22 07:27:37;;;;;;;12.87;10.57;;;12.70;99.90;;;;;;4774975;30;20081;-79
2023/04/22 07:30:05;;;;;;;13.27;10.50;;;12.60;99.90;;;;;;4760424;30;20300;-78
2023/04/22 07:32:30;;;;;;;13.47;10.47;;;12.60;99.90;;;;;;4760859;30;20293;-78
2023/04/22 07:34:56;;;;;;;13.00;11.57;;;12.50;99.90;;;;;;4774447;30;20323;-79
2023/04/22 07:37:22;;;;;;;12.33;10.33;;;12.40;99.90;;;;;;4744792;30;20066;-79
2023/04/22 07:39:47;;;;;;;12.50;10.37;;;12.50;99.90;;;;;;4774490;30;20054;-78
2023/04/22 07:42:13;;;;;;;13.87;11.53;;;12.50;99.90;;;;;;4774165;30;20142;-78
2023/04/22 07:44:39;;;;;;;14.33;11.60;;;12.50;99.90;;;;;;4790737;30;20047;-78
2023/04/22 07:47:07;;;;;;;13.67;11.50;;;12.70;99.90;;;;;;4790448;30;20047;-79
2023/04/22 07:49:33;;;;;;;14.37;11.27;;;12.90;99.90;;;;;;4774397;30;20047;-79
2023/04/22 07:51:58;;;;;;;12.23;10.90;;;13.00;99.90;;;;;;4774367;30;20293;-79
2023/04/22 07:54:24;;;;;;;12.30;10.90;;;13.00;99.90;;;;;;4790303;30;20047;-80
2023/04/22 07:56:50;;;;;;;13.60;11.13;;;13.10;99.90;;;;;;4774595;30;20077;-80
2023/04/22 07:59:15;;;;;;;11.83;10.03;;;13.20;99.90;;;;;;4790245;30;20062;-79
2023/04/22 08:01:41;;;;;;;12.97;10.93;;;13.30;99.90;;;;;;4774032;30;20063;-80
2023/04/22 08:04:07;;;;;;;14.93;11.73;;;13.30;99.90;;;;;;4790203;30;20055;-79
2023/04/22 08:06:33;;;;;;;15.97;11.37;;;13.40;99.90;;;;;;4774154;30;20051;-79
2023/04/22 08:08:58;;;;;;;13.57;11.50;;;13.50;99.90;;;;;;4790176;30;20059;-79
2023/04/22 08:11:24;;;;;;;14.10;12.60;;;13.60;99.90;;;;;;4790084;30;20047;-79
2023/04/22 08:13:50;;;;;;;14.40;11.87;;;13.80;99.90;;;;;;4774158;30;20108;-79
2023/04/22 08:16:16;;;;;;;13.87;12.40;;;14.10;99.90;;;;;;4773908;30;20051;-79
2023/04/22 08:18:42;;;;;;;12.63;11.33;;;14.30;99.90;;;;;;4773919;30;20062;-79
2023/04/22 08:21:07;;;;;;;12.63;11.33;;;14.50;99.90;;;;;;4774330;30;20186;-80
2023/04/22 08:23:33;;;;;;;12.70;11.37;;;14.60;99.90;;;;;;4774190;30;20062;-80
2023/04/22 08:25:59;;;;;;;13.37;11.53;;;14.80;99.90;;;;;;4773919;30;20134;-80
2023/04/22 08:28:25;;;;;;;16.20;12.47;;;15.00;99.90;;;;;;4774665;30;20139;-80
2023/04/22 08:30:50;;;;;;;14.73;12.63;;;15.20;99.90;;;;;;4773750;30;20056;-79
2023/04/22 08:33:16;;;;;;;14.47;12.23;;;15.20;99.90;;;;;;4773602;30;20538;-79
2023/04/22 08:35:42;;;;;;;13.37;11.97;;;15.30;99.90;;;;;;4773512;30;20055;-80
2023/04/22 08:38:07;;;;;;;14.77;11.50;;;15.40;99.90;;;;;;4788513;30;20055;-80
2023/04/22 08:40:34;;;;;;;14.00;11.67;;;15.50;99.90;;;;;;4773712;30;20051;-80
2023/04/22 08:43:00;;;;;;;17.30;13.20;;;15.50;99.90;;;;;;4773479;30;20055;-80
2023/04/22 08:45:26;;;;;;;15.20;12.23;;;15.50;99.90;;;;;;4773527;30;20617;-80
2023/04/22 08:47:53;;;;;;;13.23;11.43;;;15.50;99.90;;;;;;4773953;30;20138;-80
2023/04/22 08:50:23;;;;;;;13.40;11.93;;;15.70;99.90;;;;;;4772719;30;20163;-79
2023/04/22 08:52:48;;;;;;;13.23;11.83;;;15.80;99.90;;;;;;4773719;30;20479;-80
2023/04/22 08:55:14;;;;;;;12.83;11.37;;;15.90;99.90;;;;;;4788147;30;20087;-80
2023/04/22 08:57:40;;;;;;;14.03;12.53;;;16.00;99.90;;;;;;4788385;30;20154;-80
2023/04/22 09:00:08;;;;;;;13.67;12.23;;;16.00;99.90;;;;;;4789286;30;20089;-81
2023/04/22 09:02:36;;;;;;;13.53;12.13;;;16.00;99.90;;;;;;4789092;30;20055;-79
2023/04/22 09:05:04;;;;;;;12.93;11.57;;;16.00;99.90;;;;;;4789073;30;20055;-73
2023/04/22 09:07:31;;;;;;;14.23;12.73;;;16.00;99.90;;;;;;4773079;30;20501;-73
2023/04/22 09:09:57;;;;;;;13.70;11.63;;;16.00;99.90;;;;;;4788992;30;20053;-81
2023/04/22 09:12:31;;;;;;;13.73;12.00;;;15.90;99.90;;;;;;5090503;27;20415;-80
2023/04/22 09:14:56;;;;;;;14.97;12.40;;;15.90;99.90;;;;;;5089346;28;20082;-81
2023/04/22 09:17:37;;;;;;;13.37;11.60;;;15.80;99.90;;;;;;5090627;28;20044;-81
2023/04/22 09:20:05;;;;;;;13.37;11.97;;;15.80;99.90;;;;;;5089244;28;20048;-81
2023/04/22 09:22:48;;;;;;;13.43;11.93;;;15.70;99.90;;;;;;5090443;28;20051;-80
2023/04/22 09:25:21;;;;;;;14.70;11.90;;;15.70;99.90;;;;;;5090620;28;20052;-81
2023/04/22 09:27:54;;;;;;;13.80;12.23;;;15.70;99.90;;;;;;5090058;28;20048;-81
2023/04/22 09:30:34;;;;;;;13.30;11.87;;;15.70;99.90;;;;;;5090044;28;20106;-81
2023/04/22 09:33:02;;;;;;;13.87;11.97;;;15.90;99.90;;;;;;5090090;28;20056;-81
2023/04/22 09:35:37;;;;;;;14.57;11.47;;;16.10;99.90;;;;;;5089225;28;20044;-81
2023/04/22 09:38:06;;;;;;;14.13;11.20;;;16.20;99.90;;;;;;5090266;28;20458;-81
2023/04/22 09:40:33;;;;;;;13.53;11.40;;;16.40;99.90;;;;;;5090180;28;20048;-81
2023/04/22 09:43:07;;;;;;;12.03;10.73;;;16.40;99.90;;;;;;5089532;28;20492;-81
2023/04/22 09:45:36;;;;;;;14.97;10.70;;;16.40;99.90;;;;;;5090194;28;20048;-81
2023/04/22 09:48:09;;;;;;;13.03;11.73;;;16.50;99.90;;;;;;5089716;28;20055;-81
2023/04/22 09:50:37;;;;;;;13.03;11.63;;;16.50;99.90;;;;;;5089802;28;20090;-81
2023/04/22 09:53:08;;;;;;;11.83;10.23;;;16.50;99.90;;;;;;5089597;28;20049;-81
2023/04/22 09:55:37;;;;;;;11.77;10.40;;;16.40;99.90;;;;;;5088603;28;20052;-81
2023/04/22 09:58:14;;;;;;;12.03;10.37;;;16.30;99.90;;;;;;5089544;28;20052;-81
2023/04/22 10:00:51;;;;;;;13.97;11.73;;;16.30;99.90;;;;;;5089579;28;20438;-82
2023/04/22 10:03:17;;;;;;;12.33;10.77;;;16.30;99.90;;;;;;5090019;28;20055;-81
2023/04/22 10:05:44;;;;;;;15.63;10.27;;;16.30;99.90;;;;;;5089442;28;20062;-81
2023/04/22 10:08:12;;;;;;;11.40;10.23;;;16.30;99.90;;;;;;5089446;28;20383;-81
2023/04/22 10:10:38;;;;;;;12.10;10.90;;;16.30;99.90;;;;;;5089307;28;20529;-80
2023/04/22 10:13:05;;;;;;;13.27;10.53;;;16.40;99.90;;;;;;5089240;28;20052;-81
2023/04/22 10:15:42;;;;;;;12.53;9.80;;;16.40;99.90;;;;;;5089436;28;20046;-81
2023/04/22 10:18:11;;;;;;;13.83;9.67;;;16.40;99.90;;;;;;5089476;28;20045;-81
2023/04/22 10:20:39;;;;;;;13.03;10.37;;;16.40;99.90;;;;;;5089213;28;20523;-81
2023/04/22 10:23:16;;;;;;;12.83;9.90;;;16.40;99.90;;;;;;5080109;28;20045;-82
2023/04/22 10:25:55;;;;;;;12.40;10.07;;;16.50;99.90;;;;;;5075650;28;20056;-83
2023/04/22 10:28:22;;;;;;;12.77;10.40;;;16.60;99.90;;;;;;5074757;28;20389;-82
2023/04/22 10:30:48;;;;;;;15.20;10.17;;;16.60;99.90;;;;;;5075405;28;20107;-83
2023/04/22 10:33:20;;;;;;;11.83;9.70;;;16.70;99.90;;;;;;5074524;28;20139;-82
2023/04/22 10:36:25;;;;;;;11.23;9.87;;;16.70;99.90;;;;;;5075385;28;20061;-83
2023/04/22 10:38:53;;;;;;;11.53;9.57;;;16.70;99.90;;;;;;5074989;28;20052;-83
2023/04/22 10:41:33;;;;;;;11.17;9.00;;;16.80;99.90;;;;;;5075294;28;20045;-82
2023/04/22 10:44:00;;;;;;;12.73;8.63;;;16.80;99.90;;;;;;5074351;28;20052;-82
2023/04/22 10:46:33;;;;;;;10.00;8.07;;;16.80;99.90;;;;;;5075315;28;20040;-82
2023/04/22 10:49:08;;;;;;;10.53;8.47;;;16.90;99.90;;;;;;5075021;28;20059;-82
2023/04/22 10:51:51;;;;;;;8.97;7.60;;;16.90;99.90;;;;;;5074039;28;20063;-82
2023/04/22 10:54:26;;;;;;;12.03;9.10;;;17.00;99.90;;;;;;5075644;28;20044;-82
2023/04/22 10:57:07;;;;;;;10.73;8.63;;;17.10;99.90;;;;;;5075084;28;20056;-83
2023/04/22 10:59:40;;;;;;;10.47;8.80;;;17.10;99.90;;;;;;5075001;28;20059;-82
2023/04/22 11:02:07;;;;;;;11.40;8.60;;;17.20;99.90;;;;;;5058135;28;20053;-82
2023/04/22 11:04:33;;;;;;;10.27;8.27;;;17.20;99.90;;;;;;5074876;28;20080;-82
2023/04/22 11:07:19;;;;;;;9.87;8.70;;;17.20;99.90;;;;;;5057195;28;20106;-83
2023/04/22 11:09:50;;;;;;;11.97;8.90;;;17.20;99.90;;;;;;5075085;28;20113;-82
2023/04/22 11:12:37;;;;;;;11.73;10.00;;;17.30;99.90;;;;;;5073434;28;20048;-82
2023/04/22 11:15:13;;;;;;;10.53;8.53;;;17.30;99.90;;;;;;5074756;28;20060;-82
2023/04/22 11:17:41;;;;;;;9.83;8.83;;;17.30;99.90;;;;;;5074817;28;20128;-82
2023/04/22 11:20:11;;;;;;;9.90;8.40;;;17.30;99.90;;;;;;5073498;28;20048;-83
2023/04/22 11:22:40;;;;;;;16.47;8.67;;;17.30;99.90;;;;;;5073696;28;20446;-82
2023/04/22 11:25:08;;;;;;;9.23;8.07;;;17.50;99.90;;;;;;5074375;28;20143;-83
2023/04/22 11:27:33;;;;;;;9.90;7.83;;;17.60;99.90;;;;;;5073726;28;20187;-82
2023/04/22 11:30:11;;;;;;;9.83;8.83;;;17.70;99.90;;;;;;5073465;28;20135;-83
2023/04/22 11:32:42;;;;;;;9.30;7.63;;;17.90;99.90;;;;;;5074549;28;20045;-82
2023/04/22 11:35:11;;;;;;;8.67;6.93;;;18.10;99.90;;;;;;5073241;28;20048;-82
2023/04/22 11:37:41;;;;;;;10.00;7.67;;;18.20;99.90;;;;;;5074282;28;20053;-82
2023/04/22 11:40:12;;;;;;;11.63;7.00;;;18.30;99.90;;;;;;5074132;28;20045;-82
2023/04/22 11:42:38;;;;;;;8.57;6.90;;;18.40;99.90;;;;;;5072877;28;20500;-82
2023/04/22 11:45:05;;;;;;;10.33;8.37;;;18.50;99.90;;;;;;5073023;28;20127;-83
2023/04/22 11:47:33;;;;;;;8.53;7.33;;;18.60;99.90;;;;;;5040152;28;20151;-82
2023/04/22 11:50:11;;;;;;;11.73;7.13;;;18.70;99.90;;;;;;5072887;28;20058;-82
2023/04/22 11:52:55;;;;;;;9.07;7.87;;;18.80;99.90;;;;;;5074511;28;20048;-82
2023/04/22 11:55:29;;;;;;;8.70;7.50;;;18.90;99.90;;;;;;5073910;28;20559;-82
2023/04/22 11:58:10;;;;;;;8.98;6.55;;;18.90;99.90;;;;;;5072705;28;20048;-83
2023/04/22 12:00:39;;;;;;;8.63;6.97;;;18.90;99.90;;;;;;5073883;28;20066;-83
2023/04/22 12:03:28;;;;;;;9.63;7.43;;;18.90;99.90;;;;;;5073809;28;20051;-82
2023/04/22 12:05:56;;;;;;;8.43;6.77;;;18.90;99.90;;;;;;5072853;28;20044;-82
2023/04/22 12:08:34;;;;;;;8.37;6.30;;;19.00;99.90;;;;;;5073704;28;20059;-82
2023/04/22 12:11:02;;;;;;;8.20;7.20;;;18.90;99.90;;;;;;5073487;28;20607;-83
2023/04/22 12:13:32;;;;;;;8.90;6.17;;;18.80;99.90;;;;;;5073902;28;20117;-82
2023/04/22 12:16:00;;;;;;;8.60;6.37;;;18.70;99.90;;;;;;5073600;28;20059;-83
2023/04/22 12:18:36;;;;;;;9.00;6.80;;;18.70;99.90;;;;;;5073028;28;20048;-82
2023/04/22 12:21:11;;;;;;;8.60;6.83;;;18.70;99.90;;;;;;5073334;28;20042;-82
2023/04/22 12:23:48;;;;;;;9.03;7.10;;;18.70;99.90;;;;;;5072453;28;20055;-82
2023/04/22 12:26:19;;;;;;;9.60;6.53;;;18.80;99.90;;;;;;5073411;28;20511;-82
2023/04/22 12:28:45;;;;;;;8.60;7.07;;;18.90;99.90;;;;;;5073492;28;20103;-82
2023/04/22 12:31:12;;;;;;;9.90;6.70;;;19.00;99.90;;;;;;5072021;28;20048;-82
2023/04/22 12:33:38;;;;;;;8.73;6.47;;;19.00;99.90;;;;;;5073489;28;20087;-82
2023/04/22 12:36:05;;;;;;;9.23;6.60;;;18.90;99.90;;;;;;5073022;28;20040;-82
2023/04/22 12:38:31;;;;;;;8.77;6.83;;;18.90;99.90;;;;;;5072250;28;20044;-82
2023/04/22 12:40:57;;;;;;;9.70;6.83;;;18.80;99.90;;;;;;5073392;28;20445;-82